sensor_id;sensor_type;location;lat;lon;timestamp;pressure;altitude;pressure_sealevel;temperature;humidity
32642;BME280;19323;56.072;9.698;2023-02-13T00:00:51;102735.88;;;26.52;38.32
32642;BME280;19323;56.072;9.698;2023-02-13T00:03:16;102735.03;;;26.51;38.66
32642;BME280;19323;56.072;9.698;2023-02-13T00:05:41;102735.03;;;26.51;38.57
32642;BME280;19323;56.072;9.698;2023-02-13T00:08:07;102743.09;;;26.51;38.29
32642;BME280;19323;56.072;9.698;2023-02-13T00:10:32;102731.50;;;26.51;38.39
32642;BME280;19323;56.072;9.698;2023-02-13T00:12:57;102722.59;;;26.50;38.23
32642;BME280;19323;56.072;9.698;2023-02-13T00:15:22;102721.59;;;26.51;38.39
32642;BME280;19323;56.072;9.698;2023-02-13T00:17:47;102722.59;;;26.50;38.23
32642;BME280;19323;56.072;9.698;2023-02-13T00:20:13;102723.44;;;26.51;38.16
32642;BME280;19323;56.072;9.698;2023-02-13T00:22:38;102730.66;;;26.50;38.37
32642;BME280;19323;56.072;9.698;2023-02-13T00:25:04;102719.91;;;26.50;38.18
32642;BME280;19323;56.072;9.698;2023-02-13T00:27:29;102717.22;;;26.50;38.34
32642;BME280;19323;56.072;9.698;2023-02-13T00:29:54;102725.28;;;26.50;38.17
32642;BME280;19323;56.072;9.698;2023-02-13T00:32:19;102718.19;;;26.49;38.34
32642;BME280;19323;56.072;9.698;2023-02-13T00:34:44;102719.16;;;26.48;38.01
32642;BME280;19323;56.072;9.698;2023-02-13T00:37:09;102715.63;;;26.48;38.44
32642;BME280;19323;56.072;9.698;2023-02-13T00:39:35;102714.63;;;26.49;38.41
32642;BME280;19323;56.072;9.698;2023-02-13T00:42:00;102710.38;;;26.46;38.04
32642;BME280;19323;56.072;9.698;2023-02-13T00:44:25;102713.06;;;26.46;38.03
32642;BME280;19323;56.072;9.698;2023-02-13T00:46:50;102707.69;;;26.46;38.06
32642;BME280;19323;56.072;9.698;2023-02-13T00:49:15;102710.38;;;26.46;38.19
32642;BME280;19323;56.072;9.698;2023-02-13T00:51:40;102702.41;;;26.45;38.12
32642;BME280;19323;56.072;9.698;2023-02-13T00:54:06;102702.41;;;26.45;38.27
32642;BME280;19323;56.072;9.698;2023-02-13T00:56:31;102707.78;;;26.45;38.31
32642;BME280;19323;56.072;9.698;2023-02-13T00:58:56;102712.31;;;26.44;38.03
32642;BME280;19323;56.072;9.698;2023-02-13T01:01:21;102701.56;;;26.44;38.36
32642;BME280;19323;56.072;9.698;2023-02-13T01:03:46;102710.59;;;26.43;38.07
32642;BME280;19323;56.072;9.698;2023-02-13T01:06:11;102711.56;;;26.42;37.97
32642;BME280;19323;56.072;9.698;2023-02-13T01:08:40;102711.56;;;26.42;38.10
32642;BME280;19323;56.072;9.698;2023-02-13T01:11:06;102708.88;;;26.42;38.23
32642;BME280;19323;56.072;9.698;2023-02-13T01:13:31;102707.03;;;26.43;38.23
32642;BME280;19323;56.072;9.698;2023-02-13T01:15:56;102705.34;;;26.42;38.06
32642;BME280;19323;56.072;9.698;2023-02-13T01:18:22;102700.94;;;26.41;37.92
32642;BME280;19323;56.072;9.698;2023-02-13T01:21:03;102702.66;;;26.42;37.90
32642;BME280;19323;56.072;9.698;2023-02-13T01:23:30;102703.63;;;26.41;37.97
32642;BME280;19323;56.072;9.698;2023-02-13T01:25:55;102703.75;;;26.39;38.05
32642;BME280;19323;56.072;9.698;2023-02-13T01:28:20;102706.44;;;26.39;38.37
32642;BME280;19323;56.072;9.698;2023-02-13T01:30:51;102701.19;;;26.38;38.30
32642;BME280;19323;56.072;9.698;2023-02-13T01:33:16;102700.31;;;26.37;37.97
32642;BME280;19323;56.072;9.698;2023-02-13T01:35:41;102701.28;;;26.36;38.19
32642;BME280;19323;56.072;9.698;2023-02-13T01:38:07;102692.50;;;26.34;38.28
32642;BME280;19323;56.072;9.698;2023-02-13T01:40:32;102698.72;;;26.35;38.19
32642;BME280;19323;56.072;9.698;2023-02-13T01:42:57;102693.47;;;26.33;38.32
32642;BME280;19323;56.072;9.698;2023-02-13T01:45:26;102688.09;;;26.33;37.86
32642;BME280;19323;56.072;9.698;2023-02-13T01:48:02;102686.38;;;26.32;38.09
32642;BME280;19323;56.072;9.698;2023-02-13T01:50:32;102688.31;;;26.30;37.96
32642;BME280;19323;56.072;9.698;2023-02-13T01:53:01;102694.56;;;26.30;38.27
32642;BME280;19323;56.072;9.698;2023-02-13T01:55:28;102692.84;;;26.29;38.23
32642;BME280;19323;56.072;9.698;2023-02-13T01:57:57;102692.94;;;26.28;38.36
32642;BME280;19323;56.072;9.698;2023-02-13T02:00:24;102690.25;;;26.28;38.14
32642;BME280;19323;56.072;9.698;2023-02-13T02:02:50;102691.16;;;26.28;38.25
32642;BME280;19323;56.072;9.698;2023-02-13T02:05:17;102690.25;;;26.28;38.11
32642;BME280;19323;56.072;9.698;2023-02-13T02:07:44;102689.41;;;26.27;38.21
32642;BME280;19323;56.072;9.698;2023-02-13T02:10:17;102691.25;;;26.27;38.20
32642;BME280;19323;56.072;9.698;2023-02-13T02:12:48;102685.03;;;26.26;38.26
32642;BME280;19323;56.072;9.698;2023-02-13T02:15:16;102682.34;;;26.26;38.32
32642;BME280;19323;56.072;9.698;2023-02-13T02:17:41;102689.53;;;26.26;38.22
32642;BME280;19323;56.072;9.698;2023-02-13T02:28:25;102693.44;;;26.22;38.16
32642;BME280;19323;56.072;9.698;2023-02-13T02:35:58;102677.44;;;26.20;38.31
32642;BME280;19323;56.072;9.698;2023-02-13T02:44:19;102690.03;;;26.20;38.18
32642;BME280;19323;56.072;9.698;2023-02-13T02:46:53;102696.34;;;26.19;38.21
32642;BME280;19323;56.072;9.698;2023-02-13T02:49:39;102696.34;;;26.19;38.13
32642;BME280;19323;56.072;9.698;2023-02-13T02:52:38;102684.75;;;26.18;38.12
32642;BME280;19323;56.072;9.698;2023-02-13T02:55:08;102682.06;;;26.18;38.21
32642;BME280;19323;56.072;9.698;2023-02-13T02:57:36;102678.53;;;26.18;37.83
32642;BME280;19323;56.072;9.698;2023-02-13T03:00:22;102693.75;;;26.17;37.91
32642;BME280;19323;56.072;9.698;2023-02-13T03:03:14;102686.69;;;26.16;37.98
32642;BME280;19323;56.072;9.698;2023-02-13T03:05:59;102685.72;;;26.17;37.99
32642;BME280;19323;56.072;9.698;2023-02-13T03:08:35;102691.22;;;26.16;38.26
32642;BME280;19323;56.072;9.698;2023-02-13T03:11:20;102685.97;;;26.14;38.20
32642;BME280;19323;56.072;9.698;2023-02-13T03:14:03;102694.00;;;26.14;38.23
32642;BME280;19323;56.072;9.698;2023-02-13T03:16:31;102686.06;;;26.13;38.21
32642;BME280;19323;56.072;9.698;2023-02-13T03:19:16;102686.94;;;26.13;37.88
32642;BME280;19323;56.072;9.698;2023-02-13T03:22:05;102686.06;;;26.13;38.20
32642;BME280;19323;56.072;9.698;2023-02-13T03:27:40;102684.38;;;26.12;38.33
32642;BME280;19323;56.072;9.698;2023-02-13T03:38:41;102688.88;;;26.11;38.02
32642;BME280;19323;56.072;9.698;2023-02-13T03:41:11;102688.88;;;26.11;38.14
32642;BME280;19323;56.072;9.698;2023-02-13T03:46:27;102689.84;;;26.10;37.99
32642;BME280;19323;56.072;9.698;2023-02-13T03:48:55;102688.00;;;26.10;38.31
32642;BME280;19323;56.072;9.698;2023-02-13T03:51:49;102695.22;;;26.10;38.27
32642;BME280;19323;56.072;9.698;2023-02-13T03:54:27;102701.44;;;26.10;38.37
32642;BME280;19323;56.072;9.698;2023-02-13T03:57:14;102701.56;;;26.09;38.27
32642;BME280;19323;56.072;9.698;2023-02-13T04:00:01;102703.38;;;26.08;38.29
32642;BME280;19323;56.072;9.698;2023-02-13T04:02:28;102701.56;;;26.09;38.22
32642;BME280;19323;56.072;9.698;2023-02-13T04:05:00;102698.00;;;26.08;38.28
32642;BME280;19323;56.072;9.698;2023-02-13T04:07:30;102707.06;;;26.07;38.12
32642;BME280;19323;56.072;9.698;2023-02-13T04:09:57;102707.06;;;26.07;38.26
32642;BME280;19323;56.072;9.698;2023-02-13T04:12:32;102707.06;;;26.07;38.27
32642;BME280;19323;56.072;9.698;2023-02-13T04:15:14;102700.81;;;26.07;38.05
32642;BME280;19323;56.072;9.698;2023-02-13T04:17:42;102709.72;;;26.07;38.04
32642;BME280;19323;56.072;9.698;2023-02-13T04:20:09;102707.16;;;26.06;38.33
32642;BME280;19323;56.072;9.698;2023-02-13T04:22:40;102714.25;;;26.07;38.19
32642;BME280;19323;56.072;9.698;2023-02-13T04:25:05;102718.78;;;26.06;38.00
32642;BME280;19323;56.072;9.698;2023-02-13T04:27:31;102709.00;;;26.05;38.19
32642;BME280;19323;56.072;9.698;2023-02-13T04:29:56;102708.03;;;26.06;38.17
32642;BME280;19323;56.072;9.698;2023-02-13T04:32:21;102715.09;;;26.07;37.86
32642;BME280;19323;56.072;9.698;2023-02-13T04:34:46;102707.06;;;26.07;38.26
32642;BME280;19323;56.072;9.698;2023-02-13T04:37:11;102709.72;;;26.07;37.97
32642;BME280;19323;56.072;9.698;2023-02-13T04:39:36;102708.88;;;26.07;38.21
32642;BME280;19323;56.072;9.698;2023-02-13T04:42:02;102706.19;;;26.07;37.89
32642;BME280;19323;56.072;9.698;2023-02-13T04:44:27;102703.50;;;26.07;38.08
32642;BME280;19323;56.072;9.698;2023-02-13T04:46:52;102699.84;;;26.08;38.11
32642;BME280;19323;56.072;9.698;2023-02-13T04:49:17;102699.00;;;26.07;38.12
32642;BME280;19323;56.072;9.698;2023-02-13T04:51:42;102692.78;;;26.07;38.16
32642;BME280;19323;56.072;9.698;2023-02-13T04:54:08;102676.47;;;25.97;38.07
32642;BME280;19323;56.072;9.698;2023-02-13T04:56:34;102688.25;;;26.07;37.99
32642;BME280;19323;56.072;9.698;2023-02-13T04:58:59;102690.09;;;26.07;38.10
32642;BME280;19323;56.072;9.698;2023-02-13T05:01:24;102686.56;;;26.06;38.15
32642;BME280;19323;56.072;9.698;2023-02-13T05:03:49;102691.03;;;26.06;37.64
32642;BME280;19323;56.072;9.698;2023-02-13T05:06:14;102692.88;;;26.05;37.89
32642;BME280;19323;56.072;9.698;2023-02-13T05:08:39;102689.34;;;26.05;38.10
32642;BME280;19323;56.072;9.698;2023-02-13T05:11:05;102691.19;;;26.04;38.03
32642;BME280;19323;56.072;9.698;2023-02-13T05:13:30;102683.13;;;26.04;38.10
32642;BME280;19323;56.072;9.698;2023-02-13T05:15:55;102680.44;;;26.04;37.78
32642;BME280;19323;56.072;9.698;2023-02-13T05:18:21;102676.03;;;26.03;38.07
32642;BME280;19323;56.072;9.698;2023-02-13T05:20:46;102670.66;;;26.03;37.98
32642;BME280;19323;56.072;9.698;2023-02-13T05:23:31;102683.13;;;26.04;37.75
32642;BME280;19323;56.072;9.698;2023-02-13T05:25:56;102671.34;;;25.94;37.85
32642;BME280;19323;56.072;9.698;2023-02-13T05:28:22;102685.06;;;26.02;37.78
32642;BME280;19323;56.072;9.698;2023-02-13T05:31:05;102690.44;;;26.02;38.00
32642;BME280;19323;56.072;9.698;2023-02-13T05:33:31;102691.28;;;26.03;38.06
32642;BME280;19323;56.072;9.698;2023-02-13T05:35:56;102693.97;;;26.03;37.81
32642;BME280;19323;56.072;9.698;2023-02-13T05:38:21;102695.81;;;26.02;37.72
32642;BME280;19323;56.072;9.698;2023-02-13T05:40:46;102684.19;;;26.02;37.91
32642;BME280;19323;56.072;9.698;2023-02-13T05:43:11;102694.94;;;26.02;37.72
32642;BME280;19323;56.072;9.698;2023-02-13T05:45:36;102694.94;;;26.02;37.99
32642;BME280;19323;56.072;9.698;2023-02-13T05:48:02;102686.03;;;26.01;37.71
32642;BME280;19323;56.072;9.698;2023-02-13T05:50:27;102702.97;;;26.02;37.92
32642;BME280;19323;56.072;9.698;2023-02-13T05:52:52;102694.09;;;26.01;38.03
32642;BME280;19323;56.072;9.698;2023-02-13T05:55:17;102701.28;;;26.01;37.83
32642;BME280;19323;56.072;9.698;2023-02-13T05:57:42;102706.66;;;26.01;38.03
32642;BME280;19323;56.072;9.698;2023-02-13T06:00:08;102706.66;;;26.01;37.66
32642;BME280;19323;56.072;9.698;2023-02-13T06:02:33;102710.19;;;26.01;37.94
32642;BME280;19323;56.072;9.698;2023-02-13T06:04:58;102709.44;;;25.99;37.81
32642;BME280;19323;56.072;9.698;2023-02-13T06:07:23;102711.28;;;25.99;38.01
32642;BME280;19323;56.072;9.698;2023-02-13T06:09:48;102708.50;;;26.00;37.99
32642;BME280;19323;56.072;9.698;2023-02-13T06:12:14;102705.06;;;25.98;38.02
32642;BME280;19323;56.072;9.698;2023-02-13T06:14:39;102712.13;;;25.99;37.77
32642;BME280;19323;56.072;9.698;2023-02-13T06:17:04;102705.91;;;25.99;37.53
32642;BME280;19323;56.072;9.698;2023-02-13T06:19:29;102715.66;;;26.00;38.00
32642;BME280;19323;56.072;9.698;2023-02-13T06:21:54;102719.34;;;25.99;38.00
32642;BME280;19323;56.072;9.698;2023-02-13T06:24:19;102722.88;;;25.99;37.93
32642;BME280;19323;56.072;9.698;2023-02-13T06:26:45;102733.63;;;25.99;37.93
32642;BME280;19323;56.072;9.698;2023-02-13T06:29:10;102729.97;;;26.00;38.03
32642;BME280;19323;56.072;9.698;2023-02-13T06:31:36;102723.72;;;26.00;38.01
32642;BME280;19323;56.072;9.698;2023-02-13T06:34:02;102725.56;;;25.99;37.63
32642;BME280;19323;56.072;9.698;2023-02-13T06:36:27;102731.78;;;26.00;37.74
32642;BME280;19323;56.072;9.698;2023-02-13T06:38:52;102732.75;;;25.99;37.92
32642;BME280;19323;56.072;9.698;2023-02-13T06:41:17;102729.09;;;26.00;37.65
32642;BME280;19323;56.072;9.698;2023-02-13T06:43:43;102731.91;;;25.98;37.85
32642;BME280;19323;56.072;9.698;2023-02-13T06:46:08;102731.06;;;25.98;37.70
32642;BME280;19323;56.072;9.698;2023-02-13T06:48:33;102728.38;;;25.98;37.94
32642;BME280;19323;56.072;9.698;2023-02-13T06:50:58;102731.06;;;25.98;37.78
32642;BME280;19323;56.072;9.698;2023-02-13T06:53:25;102742.66;;;25.98;37.60
32642;BME280;19323;56.072;9.698;2023-02-13T06:55:51;102736.44;;;25.98;37.96
32642;BME280;19323;56.072;9.698;2023-02-13T06:58:17;102732.88;;;25.97;37.63
32642;BME280;19323;56.072;9.698;2023-02-13T07:00:42;102739.97;;;25.98;37.68
32642;BME280;19323;56.072;9.698;2023-02-13T07:03:07;102741.81;;;25.98;37.58
32642;BME280;19323;56.072;9.698;2023-02-13T07:05:33;102732.88;;;25.97;37.99
32642;BME280;19323;56.072;9.698;2023-02-13T07:07:59;102731.06;;;25.98;37.70
32642;BME280;19323;56.072;9.698;2023-02-13T07:10:24;102736.53;;;25.96;37.93
32642;BME280;19323;56.072;9.698;2023-02-13T07:12:49;102734.72;;;25.97;37.85
32642;BME280;19323;56.072;9.698;2023-02-13T07:15:14;102733.84;;;25.96;37.78
32642;BME280;19323;56.072;9.698;2023-02-13T07:17:39;102723.13;;;25.96;37.65
32642;BME280;19323;56.072;9.698;2023-02-13T07:20:05;102740.91;;;25.97;37.83
32642;BME280;19323;56.072;9.698;2023-02-13T07:22:30;102738.25;;;25.97;37.89
32642;BME280;19323;56.072;9.698;2023-02-13T07:24:56;102739.22;;;25.96;37.94
32642;BME280;19323;56.072;9.698;2023-02-13T07:27:22;102743.75;;;25.96;37.76
32642;BME280;19323;56.072;9.698;2023-02-13T07:29:48;102748.97;;;25.97;38.04
32642;BME280;19323;56.072;9.698;2023-02-13T07:32:13;102739.22;;;25.96;37.99
32642;BME280;19323;56.072;9.698;2023-02-13T07:34:38;102733.84;;;25.96;37.68
32642;BME280;19323;56.072;9.698;2023-02-13T07:37:03;102739.22;;;25.96;37.90
32642;BME280;19323;56.072;9.698;2023-02-13T07:39:29;102748.97;;;25.97;37.90
32642;BME280;19323;56.072;9.698;2023-02-13T07:41:55;102742.75;;;25.97;37.84
32642;BME280;19323;56.072;9.698;2023-02-13T07:44:20;102748.97;;;25.97;38.08
32642;BME280;19323;56.072;9.698;2023-02-13T07:46:45;102750.81;;;25.97;37.79
32642;BME280;19323;56.072;9.698;2023-02-13T07:49:11;102752.53;;;25.98;38.14
32642;BME280;19323;56.072;9.698;2023-02-13T07:51:36;102753.41;;;25.98;37.99
32642;BME280;19323;56.072;9.698;2023-02-13T07:54:01;102750.72;;;25.98;37.90
32642;BME280;19323;56.072;9.698;2023-02-13T07:56:26;102749.84;;;25.98;38.41
32642;BME280;19323;56.072;9.698;2023-02-13T07:58:52;102714.56;;;25.78;38.17
32642;BME280;19323;56.072;9.698;2023-02-13T08:01:17;102749.72;;;25.99;38.02
32642;BME280;19323;56.072;9.698;2023-02-13T08:03:46;102764.00;;;26.00;38.21
32642;BME280;19323;56.072;9.698;2023-02-13T08:06:11;102763.16;;;25.99;38.17
32642;BME280;19323;56.072;9.698;2023-02-13T08:08:36;102771.94;;;26.01;38.29
32642;BME280;19323;56.072;9.698;2023-02-13T08:11:06;102772.94;;;26.00;38.37
32642;BME280;19323;56.072;9.698;2023-02-13T08:13:51;102772.94;;;26.00;38.43
32642;BME280;19323;56.072;9.698;2023-02-13T08:16:16;102776.56;;;25.99;38.15
32642;BME280;19323;56.072;9.698;2023-02-13T08:18:41;102782.94;;;25.98;38.18
32642;BME280;19323;56.072;9.698;2023-02-13T08:21:06;102778.41;;;25.99;38.24
32642;BME280;19323;56.072;9.698;2023-02-13T08:23:31;102779.25;;;25.99;38.21
32642;BME280;19323;56.072;9.698;2023-02-13T08:26:00;102786.56;;;25.97;38.47
32642;BME280;19323;56.072;9.698;2023-02-13T08:28:26;102788.31;;;25.98;38.59
32642;BME280;19323;56.072;9.698;2023-02-13T08:30:51;102787.44;;;25.98;38.61
32642;BME280;19323;56.072;9.698;2023-02-13T08:33:16;102784.75;;;25.98;38.48
32642;BME280;19323;56.072;9.698;2023-02-13T08:35:41;102789.25;;;25.97;38.18
32642;BME280;19323;56.072;9.698;2023-02-13T08:38:07;102783.78;;;25.99;38.48
32642;BME280;19323;56.072;9.698;2023-02-13T08:40:33;102778.31;;;26.00;38.22
32642;BME280;19323;56.072;9.698;2023-02-13T08:42:59;102773.78;;;26.01;38.22
32642;BME280;19323;56.072;9.698;2023-02-13T08:45:25;102778.06;;;26.03;38.50
32642;BME280;19323;56.072;9.698;2023-02-13T08:47:50;102778.91;;;26.04;38.28
32642;BME280;19323;56.072;9.698;2023-02-13T08:50:15;102776.13;;;26.05;38.36
32642;BME280;19323;56.072;9.698;2023-02-13T08:52:40;102774.44;;;26.04;38.45
32642;BME280;19323;56.072;9.698;2023-02-13T08:55:06;102776.13;;;26.05;38.48
32642;BME280;19323;56.072;9.698;2023-02-13T08:57:31;102781.50;;;26.05;38.24
32642;BME280;19323;56.072;9.698;2023-02-13T08:59:56;102783.22;;;26.06;38.19
32642;BME280;19323;56.072;9.698;2023-02-13T09:02:21;102779.56;;;26.07;38.47
32642;BME280;19323;56.072;9.698;2023-02-13T09:04:46;102774.19;;;26.07;38.49
32642;BME280;19323;56.072;9.698;2023-02-13T09:07:12;102775.03;;;26.08;38.60
32642;BME280;19323;56.072;9.698;2023-02-13T09:09:37;102776.88;;;26.07;38.69
32642;BME280;19323;56.072;9.698;2023-02-13T09:12:02;102777.84;;;26.06;38.65
32642;BME280;19323;56.072;9.698;2023-02-13T09:14:27;102767.13;;;26.06;38.57
32642;BME280;19323;56.072;9.698;2023-02-13T09:16:52;102766.97;;;26.08;38.71
32642;BME280;19323;56.072;9.698;2023-02-13T09:19:18;102772.50;;;26.06;38.73
32642;BME280;19323;56.072;9.698;2023-02-13T09:21:43;102763.34;;;26.09;38.63
32642;BME280;19323;56.072;9.698;2023-02-13T09:24:09;102772.25;;;26.09;38.68
32642;BME280;19323;56.072;9.698;2023-02-13T09:26:34;102773.09;;;26.10;38.65
32642;BME280;19323;56.072;9.698;2023-02-13T09:28:59;102769.56;;;26.09;38.63
32642;BME280;19323;56.072;9.698;2023-02-13T09:31:24;102774.81;;;26.11;38.32
32642;BME280;19323;56.072;9.698;2023-02-13T09:33:50;102772.13;;;26.11;38.70
32642;BME280;19323;56.072;9.698;2023-02-13T09:36:16;102768.56;;;26.10;38.65
32642;BME280;19323;56.072;9.698;2023-02-13T09:38:43;102764.94;;;26.12;38.42
32642;BME280;19323;56.072;9.698;2023-02-13T09:41:10;102761.41;;;26.11;38.67
32642;BME280;19323;56.072;9.698;2023-02-13T09:43:40;102762.25;;;26.12;38.56
32642;BME280;19323;56.072;9.698;2023-02-13T09:46:21;102762.16;;;26.13;38.72
32642;BME280;19323;56.072;9.698;2023-02-13T09:48:48;102768.38;;;26.14;38.65
32642;BME280;19323;56.072;9.698;2023-02-13T09:51:16;102772.00;;;26.13;38.40
32642;BME280;19323;56.072;9.698;2023-02-13T09:53:43;102779.22;;;26.12;38.75
32642;BME280;19323;56.072;9.698;2023-02-13T09:56:12;102781.78;;;26.14;38.69
32642;BME280;19323;56.072;9.698;2023-02-13T09:58:43;102783.50;;;26.15;38.57
32642;BME280;19323;56.072;9.698;2023-02-13T10:06:31;102777.16;;;26.16;38.91
32642;BME280;19323;56.072;9.698;2023-02-13T10:09:05;102777.91;;;26.18;38.85
32642;BME280;19323;56.072;9.698;2023-02-13T10:11:41;102775.22;;;26.18;38.86
32642;BME280;19323;56.072;9.698;2023-02-13T10:16:35;102773.38;;;26.18;38.83
32642;BME280;19323;56.072;9.698;2023-02-13T10:19:12;102779.50;;;26.20;38.55
32642;BME280;19323;56.072;9.698;2023-02-13T10:21:41;102774.13;;;26.20;38.89
32642;BME280;19323;56.072;9.698;2023-02-13T10:24:13;102767.78;;;26.21;38.75
32642;BME280;19323;56.072;9.698;2023-02-13T10:26:42;102770.47;;;26.21;38.92
32642;BME280;19323;56.072;9.698;2023-02-13T10:31:54;102758.66;;;26.24;38.40
32642;BME280;19323;56.072;9.698;2023-02-13T10:34:21;102765.84;;;26.23;38.70
32642;BME280;19323;56.072;9.698;2023-02-13T10:36:46;102754.13;;;26.24;38.70
32642;BME280;19323;56.072;9.698;2023-02-13T10:39:17;102766.56;;;26.25;38.33
32642;BME280;19323;56.072;9.698;2023-02-13T10:41:57;102764.72;;;26.26;38.47
32642;BME280;19323;56.072;9.698;2023-02-13T10:44:28;102757.56;;;26.26;38.15
32642;BME280;19323;56.072;9.698;2023-02-13T10:47:14;102749.50;;;26.26;38.00
32642;BME280;19323;56.072;9.698;2023-02-13T10:57:27;102768.91;;;26.30;38.39
32642;BME280;19323;56.072;9.698;2023-02-13T11:02:35;102777.84;;;26.30;38.07
32642;BME280;19323;56.072;9.698;2023-02-13T11:05:02;102788.69;;;26.29;37.92
32642;BME280;19323;56.072;9.698;2023-02-13T11:07:31;102782.34;;;26.30;38.26
32642;BME280;19323;56.072;9.698;2023-02-13T11:09:59;102792.13;;;26.31;37.83
32642;BME280;19323;56.072;9.698;2023-02-13T11:12:28;102787.59;;;26.31;37.73
32642;BME280;19323;56.072;9.698;2023-02-13T11:14:58;102790.19;;;26.33;38.05
32642;BME280;19323;56.072;9.698;2023-02-13T11:17:24;102804.38;;;26.35;37.67
32642;BME280;19323;56.072;9.698;2023-02-13T11:20:00;102789.94;;;26.36;38.01
32642;BME280;19323;56.072;9.698;2023-02-13T11:24:55;102788.00;;;26.38;37.71
32642;BME280;19323;56.072;9.698;2023-02-13T11:27:23;102795.97;;;26.40;37.57
32642;BME280;19323;56.072;9.698;2023-02-13T11:32:17;102803.78;;;26.43;38.03
32642;BME280;19323;56.072;9.698;2023-02-13T11:34:43;102795.72;;;26.43;37.66
32642;BME280;19323;56.072;9.698;2023-02-13T11:39:40;102794.88;;;26.42;37.57
32642;BME280;19323;56.072;9.698;2023-02-13T11:42:11;102793.03;;;26.43;37.50
32642;BME280;19323;56.072;9.698;2023-02-13T11:44:37;102798.28;;;26.44;37.79
32642;BME280;19323;56.072;9.698;2023-02-13T11:47:05;102798.19;;;26.46;37.85
32642;BME280;19323;56.072;9.698;2023-02-13T11:49:31;102798.19;;;26.46;37.77
32642;BME280;19323;56.072;9.698;2023-02-13T11:52:40;102798.03;;;26.47;37.65
32642;BME280;19323;56.072;9.698;2023-02-13T11:54:46;102788.78;;;26.51;37.47
32642;BME280;19323;56.072;9.698;2023-02-13T11:59:45;102786.00;;;26.53;37.27
32642;BME280;19323;56.072;9.698;2023-02-13T12:02:15;102792.22;;;26.54;37.60
32642;BME280;19323;56.072;9.698;2023-02-13T12:04:41;102799.31;;;26.55;37.19
32642;BME280;19323;56.072;9.698;2023-02-13T12:09:37;102806.44;;;26.56;37.67
32642;BME280;19323;56.072;9.698;2023-02-13T12:12:03;102802.78;;;26.57;37.09
32642;BME280;19323;56.072;9.698;2023-02-13T12:14:33;102805.34;;;26.58;37.17
32642;BME280;19323;56.072;9.698;2023-02-13T12:17:07;102811.56;;;26.59;37.08
32642;BME280;19323;56.072;9.698;2023-02-13T12:19:40;102812.44;;;26.59;37.37
32642;BME280;19323;56.072;9.698;2023-02-13T12:24:39;102810.50;;;26.61;37.05
32642;BME280;19323;56.072;9.698;2023-02-13T12:27:11;102801.44;;;26.62;37.39
32642;BME280;19323;56.072;9.698;2023-02-13T12:32:18;102803.16;;;26.63;37.29
32642;BME280;19323;56.072;9.698;2023-02-13T12:37:15;102812.09;;;26.64;36.88
32642;BME280;19323;56.072;9.698;2023-02-13T12:39:50;102804.97;;;26.63;36.78
32642;BME280;19323;56.072;9.698;2023-02-13T12:51:00;102794.00;;;26.66;37.13
32642;BME280;19323;56.072;9.698;2023-02-13T13:09:06;102788.38;;;26.69;37.32
32642;BME280;19323;56.072;9.698;2023-02-13T13:11:47;102786.53;;;26.69;37.29
32642;BME280;19323;56.072;9.698;2023-02-13T13:14:31;102791.94;;;26.69;36.94
32642;BME280;19323;56.072;9.698;2023-02-13T13:19:57;102792.81;;;26.70;36.85
32642;BME280;19323;56.072;9.698;2023-02-13T13:24:57;102781.16;;;26.69;37.04
32642;BME280;19323;56.072;9.698;2023-02-13T13:27:31;102788.28;;;26.70;36.93
32642;BME280;19323;56.072;9.698;2023-02-13T13:29:58;102791.94;;;26.69;36.89
32642;BME280;19323;56.072;9.698;2023-02-13T13:32:25;102786.44;;;26.71;36.94
32642;BME280;19323;56.072;9.698;2023-02-13T13:34:52;102788.16;;;26.72;36.88
32642;BME280;19323;56.072;9.698;2023-02-13T13:37:26;102789.97;;;26.71;36.87
32642;BME280;19323;56.072;9.698;2023-02-13T13:39:56;102789.97;;;26.71;37.29
32642;BME280;19323;56.072;9.698;2023-02-13T13:45:32;102773.75;;;26.73;37.08
32642;BME280;19323;56.072;9.698;2023-02-13T13:50:39;102780.81;;;26.74;36.93
32642;BME280;19323;56.072;9.698;2023-02-13T14:03:43;102790.72;;;26.74;36.83
32642;BME280;19323;56.072;9.698;2023-02-13T14:06:11;102788.03;;;26.74;37.29
32642;BME280;19323;56.072;9.698;2023-02-13T14:11:05;102788.88;;;26.74;36.83
32642;BME280;19323;56.072;9.698;2023-02-13T14:15:56;102775.56;;;26.73;37.08
32642;BME280;19323;56.072;9.698;2023-02-13T14:18:22;102769.34;;;26.72;36.90
32642;BME280;19323;56.072;9.698;2023-02-13T14:31:21;102775.19;;;26.66;36.85
32642;BME280;19323;56.072;9.698;2023-02-13T14:33:58;102780.56;;;26.66;36.94
32642;BME280;19323;56.072;9.698;2023-02-13T14:36:28;102778.00;;;26.64;37.12
32642;BME280;19323;56.072;9.698;2023-02-13T14:38:58;102777.13;;;26.64;37.15
32642;BME280;19323;56.072;9.698;2023-02-13T14:41:41;102786.06;;;26.64;37.07
32642;BME280;19323;56.072;9.698;2023-02-13T14:47:18;102781.66;;;26.63;36.84
32642;BME280;19323;56.072;9.698;2023-02-13T14:49:45;102779.94;;;26.62;36.84
32642;BME280;19323;56.072;9.698;2023-02-13T14:52:16;102787.16;;;26.62;36.85
32642;BME280;19323;56.072;9.698;2023-02-13T14:54:44;102778.25;;;26.61;36.69
32642;BME280;19323;56.072;9.698;2023-02-13T14:57:15;102784.47;;;26.62;36.60
32642;BME280;19323;56.072;9.698;2023-02-13T14:59:42;102780.94;;;26.61;36.75
32642;BME280;19323;56.072;9.698;2023-02-13T15:02:16;102778.25;;;26.61;36.71
32642;BME280;19323;56.072;9.698;2023-02-13T15:04:45;102771.03;;;26.62;36.61
32642;BME280;19323;56.072;9.698;2023-02-13T15:07:16;102774.56;;;26.62;36.53
32642;BME280;19323;56.072;9.698;2023-02-13T15:09:45;102774.56;;;26.62;36.97
32642;BME280;19323;56.072;9.698;2023-02-13T15:14:49;102773.72;;;26.62;36.52
32642;BME280;19323;56.072;9.698;2023-02-13T15:17:27;102773.72;;;26.62;36.58